Savoonga Airport
PASA : now visible

Airfield :











YOU CAN JOIN US ON...

 
LOGIN :

Register | Disclaimer

   EN    FR    IT 

 









Legend :    VFR   Marginal VFR   IFR   Intensive IFR   Very Intensive IFR
Visi :
Ceiling :
>= 8 km
>= 3000ft
5 to 8 km
1000 to 3000 ft
1500m to 5 km
500 to 1000 ft
800 to 1500m
200 to 500 ft
< 800m
< 200 ft
Symbols :   Thunderstorms  Fog  Heavy snow  Heavy precipitations  Wind > 20 kt






- Airport Elevation : 53 ft
- IATA code : SVA


PASA - Savoonga

CURRENT METAR :
  • 040851Z AUTO 07009KT 1/2SM FZFG BKN001 M02/M03 A2993 RMK AO2 SLP137 T10171028 400391033 53004 FZRANO

EXPIRED METARs :
  • 040833Z AUTO 07009KT 1SM BR OVC001 M02/M02 A2993 RMK AO2 FZRANO
  • 040814Z AUTO 07011KT 1/2SM FZFG OVC001 M01/M02 A2993 RMK AO2 FZRANO
  • 040800Z AUTO 07009KT 3/4SM BR OVC001 M01/M02 A2993 RMK AO2 FZRANO
  • 040736Z AUTO 07011KT 2 1/2SM BR BKN001 M01/M02 A2993 RMK AO2 VIS 3/4V5 FZRANO
  • 040719Z AUTO 07009KT 3SM BR SCT001 00/M02 A2993 RMK AO2 FZRANO
  • 040656Z AUTO 06008KT 10SM CLR 01/M01 A2992 RMK AO2 SLP133 T00111006 FZRANO
  • 040556Z AUTO 06007KT 6SM BR FEW001 01/M01 A2992 RMK AO2 SLP132 T00061011 10022 20006 51006 FZRANO

TAF N/A
PAZA FIR / North America



MET'MAP, your aeronautical weather chart ! - Copyright ORBIFLY December 2007 - Disclaimer

ORBIFLY MET'MAP TEAM :

Programming & Development : Alexandra Zaïnal
Concept & original design : Baudouin d'Aumeries
Assistance for programming : Marc-Olivier Méhu
Technical & hardware support : Manuel Goepfert

Contact : metmap@orbifly.com




SOURCES & CREDITS :

   NOAA       Earth
Advisory